createdAt,value
2023-03-02T00:01:39.959Z,19.53
2023-03-02T00:04:12.001Z,23.23
2023-03-02T00:06:39.938Z,20.47
2023-03-02T00:09:07.363Z,21.03
2023-03-02T00:11:38.012Z,31.10
2023-03-02T00:14:06.168Z,26.90
2023-03-02T00:16:34.792Z,30.20
2023-03-02T00:19:02.548Z,29.87
2023-03-02T00:21:29.712Z,27.73
2023-03-02T00:23:56.869Z,24.83
2023-03-02T00:26:24.042Z,30.93
2023-03-02T00:28:51.858Z,31.43
2023-03-02T00:31:19.061Z,30.43
2023-03-02T00:33:46.758Z,30.83
2023-03-02T00:36:18.371Z,26.43
2023-03-02T00:38:45.998Z,29.43
2023-03-02T00:41:14.011Z,27.37
2023-03-02T00:43:42.304Z,24.63
2023-03-02T00:46:15.441Z,24.30
2023-03-02T00:48:43.207Z,19.13
2023-03-02T00:51:11.395Z,20.60
2023-03-02T00:53:39.209Z,22.03
2023-03-02T00:56:07.851Z,21.03
2023-03-02T00:58:35.856Z,20.67
2023-03-02T01:01:09.900Z,17.63
2023-03-02T01:03:38.260Z,14.10
2023-03-02T01:06:53.259Z,13.83
2023-03-02T01:09:20.282Z,13.40
2023-03-02T01:11:47.632Z,13.70
2023-03-02T01:14:15.643Z,15.40
2023-03-02T01:20:30.320Z,13.17
2023-03-02T01:22:57.819Z,13.40
2023-03-02T01:25:25.193Z,14.93
2023-03-02T01:27:52.497Z,14.27
2023-03-02T01:30:19.753Z,13.57
2023-03-02T01:32:47.093Z,13.87
2023-03-02T01:35:14.777Z,13.93
2023-03-02T01:37:41.971Z,13.67
2023-03-02T01:40:11.392Z,15.33
2023-03-02T01:42:45.816Z,15.83
2023-03-02T01:45:52.354Z,15.80
2023-03-02T01:48:29.831Z,16.73
2023-03-02T01:51:40.268Z,16.93
2023-03-02T01:54:17.344Z,15.70
2023-03-02T01:56:45.958Z,15.53
2023-03-02T01:59:25.747Z,15.73
2023-03-02T02:02:26.408Z,11.43
2023-03-02T02:04:59.692Z,20.80
2023-03-02T02:10:37.649Z,18.70
2023-03-02T02:13:17.098Z,18.60
2023-03-02T02:15:44.808Z,17.43
2023-03-02T02:18:27.871Z,16.93
2023-03-02T02:20:56.657Z,16.87
2023-03-02T02:23:47.789Z,17.70
2023-03-02T02:26:20.893Z,16.93
2023-03-02T02:29:33.097Z,17.30
2023-03-02T02:32:34.212Z,18.03
2023-03-02T02:35:31.546Z,17.00
2023-03-02T02:38:26.112Z,15.07
2023-03-02T02:41:03.295Z,13.33
2023-03-02T02:43:32.376Z,13.73
2023-03-02T02:46:03.693Z,23.80
2023-03-02T02:48:41.736Z,20.93
2023-03-02T02:51:27.253Z,17.37
2023-03-02T02:54:00.955Z,21.03
2023-03-02T02:56:42.104Z,17.20
2023-03-02T02:59:37.899Z,20.30
2023-03-02T03:02:39.576Z,19.33
2023-03-02T03:05:17.061Z,22.97
2023-03-02T03:07:44.611Z,24.13
2023-03-02T03:10:28.818Z,20.17
2023-03-02T03:12:59.051Z,25.53
2023-03-02T03:15:29.480Z,28.53
2023-03-02T03:18:00.055Z,22.03
2023-03-02T03:23:20.856Z,30.77
2023-03-02T03:25:54.061Z,28.77
2023-03-02T03:28:21.300Z,29.03
2023-03-02T03:30:48.574Z,27.67
2023-03-02T03:39:58.743Z,26.97
2023-03-02T03:42:47.342Z,24.57
2023-03-02T03:45:17.641Z,23.87
2023-03-02T03:47:50.362Z,23.43
2023-03-02T03:50:35.385Z,22.53
2023-03-02T03:53:05.449Z,22.97
2023-03-02T03:55:32.714Z,22.20
2023-03-02T03:58:02.705Z,21.57
2023-03-02T04:00:29.863Z,22.63
2023-03-02T04:02:57.150Z,20.47
2023-03-02T04:05:31.656Z,22.13
2023-03-02T04:08:02.457Z,21.13
2023-03-02T04:10:40.018Z,20.37
2023-03-02T04:13:32.154Z,21.77
2023-03-02T04:15:59.353Z,22.00
2023-03-02T04:18:29.636Z,21.60
2023-03-02T04:21:03.012Z,21.77
2023-03-02T04:23:30.021Z,20.10
2023-03-02T04:26:01.491Z,22.17
2023-03-02T04:28:37.671Z,22.20
2023-03-02T04:31:05.076Z,22.83
2023-03-02T04:34:02.537Z,22.70
2023-03-02T04:36:45.391Z,23.60
2023-03-02T04:39:46.191Z,22.57
2023-03-02T04:42:24.132Z,22.03
2023-03-02T04:44:51.272Z,23.13
2023-03-02T04:47:26.317Z,22.50
2023-03-02T04:49:57.954Z,23.17
2023-03-02T04:52:40.362Z,22.07
2023-03-02T04:55:26.561Z,21.83
2023-03-02T04:58:03.933Z,20.33
2023-03-02T05:00:34.584Z,20.83
2023-03-02T05:03:03.177Z,21.30
2023-03-02T05:05:51.708Z,20.63
2023-03-02T05:11:34.355Z,20.50
2023-03-02T05:14:07.436Z,20.03
2023-03-02T05:17:01.552Z,19.43
2023-03-02T05:19:50.111Z,15.67
2023-03-02T05:22:35.550Z,18.17
2023-03-02T05:25:06.434Z,18.03
2023-03-02T05:31:05.122Z,14.47
2023-03-02T05:33:35.354Z,14.90
2023-03-02T05:36:02.856Z,16.40
2023-03-02T05:38:46.476Z,17.50
2023-03-02T05:41:38.240Z,17.77
2023-03-02T05:44:09.991Z,18.43
2023-03-02T05:46:46.082Z,17.43
2023-03-02T05:49:19.320Z,18.40
2023-03-02T05:51:46.478Z,17.80
2023-03-02T05:54:58.524Z,16.17
2023-03-02T05:57:44.489Z,16.07
2023-03-02T06:00:13.810Z,16.60
2023-03-02T06:03:21.456Z,14.57
2023-03-02T06:05:52.623Z,20.00
2023-03-02T06:08:41.281Z,19.47
2023-03-02T06:11:11.730Z,25.73
2023-03-02T06:14:00.624Z,24.43
2023-03-02T06:16:31.012Z,24.90
2023-03-02T06:19:14.595Z,18.53
2023-03-02T06:21:49.346Z,16.27
2023-03-02T06:24:16.395Z,17.03
2023-03-02T06:26:55.808Z,18.43
2023-03-02T06:29:23.576Z,14.27
2023-03-02T06:31:50.938Z,15.37
2023-03-02T06:34:30.452Z,18.37
2023-03-02T06:36:58.457Z,19.47
2023-03-02T06:39:38.482Z,20.50
2023-03-02T06:42:36.234Z,18.80
2023-03-02T06:45:45.562Z,20.90
2023-03-02T06:48:28.596Z,20.87
2023-03-02T06:50:58.747Z,21.47
2023-03-02T06:53:49.517Z,21.67
2023-03-02T06:56:16.555Z,18.57
2023-03-02T06:58:59.653Z,18.37
2023-03-02T07:01:38.918Z,11.97
2023-03-02T07:04:08.748Z,16.50
2023-03-02T07:06:36.113Z,14.07
2023-03-02T07:12:06.276Z,14.37
2023-03-02T07:14:36.765Z,14.57
2023-03-02T07:17:07.406Z,14.00
2023-03-02T07:19:34.608Z,12.63
2023-03-02T07:22:01.759Z,13.60
2023-03-02T07:24:29.073Z,15.13
2023-03-02T07:27:05.871Z,14.93
2023-03-02T07:29:33.220Z,15.73
2023-03-02T07:32:03.621Z,13.83
2023-03-02T07:34:30.683Z,13.50
2023-03-02T07:36:58.454Z,15.23
2023-03-02T07:39:25.680Z,16.27
2023-03-02T07:42:00.936Z,19.30
2023-03-02T07:44:28.870Z,18.63
2023-03-02T07:46:56.584Z,18.50
2023-03-02T07:49:23.642Z,15.33
2023-03-02T07:51:50.826Z,14.87
2023-03-02T07:54:27.924Z,15.87
2023-03-02T07:56:55.146Z,14.63
2023-03-02T07:59:22.551Z,15.63
2023-03-02T08:01:50.209Z,13.70
2023-03-02T08:04:17.307Z,13.40
2023-03-02T08:06:44.307Z,12.90
2023-03-02T08:09:11.474Z,14.07
2023-03-02T08:11:38.730Z,12.77
2023-03-02T08:14:06.030Z,13.70
2023-03-02T08:16:33.201Z,12.30
2023-03-02T08:19:00.792Z,9.57
2023-03-02T08:21:52.044Z,9.40
2023-03-02T08:24:22.437Z,10.70
2023-03-02T08:26:49.596Z,10.90
2023-03-02T08:29:16.884Z,11.03
2023-03-02T08:31:43.992Z,12.00
2023-03-02T08:34:12.261Z,11.33
2023-03-02T08:36:39.625Z,12.10
2023-03-02T08:39:06.616Z,12.60
2023-03-02T08:41:35.265Z,12.47
2023-03-02T08:44:02.548Z,11.70
2023-03-02T08:46:30.879Z,12.50
2023-03-02T08:48:57.878Z,13.17
2023-03-02T08:51:26.959Z,12.23
2023-03-02T08:53:56.560Z,13.53
2023-03-02T08:56:32.913Z,13.10
2023-03-02T08:59:03.527Z,13.03
2023-03-02T09:01:33.608Z,13.00
2023-03-02T09:04:03.007Z,13.90
2023-03-02T09:06:32.807Z,14.07
2023-03-02T09:09:00.024Z,13.77
2023-03-02T09:11:27.338Z,13.57
2023-03-02T09:13:55.474Z,13.40
2023-03-02T09:16:24.546Z,13.13
2023-03-02T09:18:52.829Z,14.90
2023-03-02T09:21:23.462Z,9.73
2023-03-02T09:23:54.395Z,10.07
2023-03-02T09:26:21.810Z,10.13
2023-03-02T09:28:48.833Z,19.10
2023-03-02T09:31:15.853Z,11.13
2023-03-02T09:33:42.987Z,12.30
2023-03-02T09:36:13.297Z,16.00
2023-03-02T09:38:43.151Z,10.40
2023-03-02T09:41:33.322Z,11.00
2023-03-02T09:44:40.817Z,10.27
2023-03-02T09:47:35.796Z,9.03
2023-03-02T09:50:38.001Z,13.67
2023-03-02T09:53:17.153Z,14.17
2023-03-02T09:55:51.190Z,15.00
2023-03-02T09:58:21.051Z,9.43
2023-03-02T10:00:49.572Z,14.07
2023-03-02T10:03:27.469Z,9.63
2023-03-02T10:05:55.667Z,9.00
2023-03-02T10:08:26.209Z,12.47
2023-03-02T10:11:40.410Z,15.17
2023-03-02T10:14:42.350Z,13.20
2023-03-02T10:17:21.390Z,12.93
2023-03-02T10:19:56.450Z,12.70
2023-03-02T10:22:32.017Z,13.67
2023-03-02T10:25:08.235Z,13.30
2023-03-02T10:27:39.026Z,13.97
2023-03-02T10:30:30.020Z,9.67
2023-03-02T10:33:04.477Z,12.17
2023-03-02T10:35:32.243Z,10.17
2023-03-02T10:38:21.054Z,11.70
2023-03-02T10:41:01.076Z,10.07
2023-03-02T10:43:47.602Z,12.57
2023-03-02T10:46:18.281Z,13.33
2023-03-02T10:48:53.147Z,13.10
2023-03-02T10:51:32.774Z,12.07
2023-03-02T10:54:26.131Z,13.23
2023-03-02T10:56:56.228Z,13.27
2023-03-02T10:59:27.071Z,13.60
2023-03-02T11:02:15.551Z,13.27
2023-03-02T11:04:42.718Z,13.83
2023-03-02T11:07:21.176Z,13.47
2023-03-02T11:10:04.916Z,12.63
2023-03-02T11:12:37.427Z,12.23
2023-03-02T11:15:19.379Z,11.47
2023-03-02T11:17:50.928Z,12.93
2023-03-02T11:20:26.221Z,12.07
2023-03-02T11:23:26.443Z,13.33
2023-03-02T11:25:58.186Z,12.97
2023-03-02T11:28:39.108Z,12.97
2023-03-02T11:37:57.625Z,12.80
2023-03-02T11:40:47.293Z,12.37
2023-03-02T11:43:15.039Z,12.77
2023-03-02T11:46:06.675Z,11.93
2023-03-02T11:48:57.768Z,12.33
2023-03-02T11:51:29.186Z,12.40
2023-03-02T11:54:06.870Z,12.90
2023-03-02T11:56:47.430Z,12.83
2023-03-02T11:59:38.340Z,12.57
2023-03-02T12:02:05.913Z,12.77
2023-03-02T12:07:34.949Z,11.63
2023-03-02T12:10:22.793Z,12.03
2023-03-02T12:13:27.834Z,12.00
2023-03-02T12:15:56.604Z,12.07
2023-03-02T12:18:47.167Z,11.70
2023-03-02T12:21:39.661Z,9.63
2023-03-02T12:24:27.901Z,10.07
2023-03-02T12:27:09.293Z,11.67
2023-03-02T12:29:47.292Z,11.60
2023-03-02T12:32:28.105Z,12.57
2023-03-02T12:35:03.347Z,10.10
2023-03-02T12:37:35.058Z,11.40
2023-03-02T12:40:36.015Z,8.63
2023-03-02T12:43:34.156Z,11.10
2023-03-02T12:46:21.378Z,10.50
2023-03-02T12:49:01.071Z,9.83
2023-03-02T12:51:31.617Z,11.57
2023-03-02T12:54:06.942Z,10.53
2023-03-02T12:56:40.411Z,11.03
2023-03-02T12:59:07.541Z,11.30
2023-03-02T13:02:03.587Z,11.20
2023-03-02T13:04:30.673Z,10.63
2023-03-02T13:06:58.252Z,10.80
2023-03-02T13:09:25.233Z,10.43
2023-03-02T13:11:55.375Z,10.53
2023-03-02T13:14:27.509Z,10.83
2023-03-02T13:17:00.202Z,10.60
2023-03-02T13:19:39.793Z,10.67
2023-03-02T13:22:08.715Z,10.30
2023-03-02T13:24:58.079Z,11.37
2023-03-02T13:27:38.787Z,10.30
2023-03-02T13:30:14.553Z,10.70
2023-03-02T13:32:48.136Z,10.93
2023-03-02T13:35:38.977Z,10.17
2023-03-02T13:38:20.926Z,9.73
2023-03-02T13:40:56.458Z,10.40
2023-03-02T13:43:41.328Z,10.97
2023-03-02T13:46:27.619Z,10.87
2023-03-02T13:49:11.068Z,9.87
2023-03-02T13:51:42.600Z,10.17
2023-03-02T13:54:43.578Z,10.50
2023-03-02T13:57:46.081Z,10.70
2023-03-02T14:00:46.024Z,9.53
2023-03-02T14:03:24.189Z,10.30
2023-03-02T14:05:55.573Z,10.03
2023-03-02T14:08:22.800Z,9.53
2023-03-02T14:10:52.632Z,9.17
2023-03-02T14:13:23.903Z,10.33
2023-03-02T14:16:00.131Z,10.50
2023-03-02T14:18:37.873Z,8.67
2023-03-02T14:21:28.161Z,9.63
2023-03-02T14:23:59.303Z,8.30
2023-03-02T14:26:50.318Z,8.70
2023-03-02T14:29:44.144Z,8.37
2023-03-02T14:32:53.728Z,7.90
2023-03-02T14:35:37.253Z,8.30
2023-03-02T14:38:05.111Z,6.70
2023-03-02T14:43:35.393Z,6.93
2023-03-02T14:46:02.764Z,7.37
2023-03-02T14:48:35.645Z,7.00
2023-03-02T14:51:05.776Z,6.90
2023-03-02T14:53:35.537Z,6.60
2023-03-02T14:59:30.565Z,4.90
2023-03-02T15:02:00.411Z,5.93
2023-03-02T15:04:31.290Z,6.37
2023-03-02T15:06:58.516Z,7.73
2023-03-02T15:09:25.951Z,7.13
2023-03-02T15:14:53.230Z,6.07
2023-03-02T15:17:25.351Z,5.60
2023-03-02T15:19:52.591Z,5.33
2023-03-02T15:22:29.307Z,5.90
2023-03-02T15:24:56.773Z,5.77
2023-03-02T15:27:30.777Z,6.20
2023-03-02T15:29:57.917Z,6.70
2023-03-02T15:32:25.344Z,6.50
2023-03-02T15:34:52.396Z,6.13
2023-03-02T15:37:19.762Z,6.23
2023-03-02T15:39:47.377Z,6.37
2023-03-02T15:42:45.039Z,6.20
2023-03-02T15:45:12.473Z,6.70
2023-03-02T15:47:39.966Z,7.00
2023-03-02T15:50:07.703Z,6.67
2023-03-02T15:52:34.987Z,7.43
2023-03-02T15:55:02.545Z,7.10
2023-03-02T16:00:29.610Z,8.17
2023-03-02T16:02:56.662Z,7.20
2023-03-02T16:05:23.772Z,8.37
2023-03-02T16:07:51.284Z,8.37
2023-03-02T16:10:21.751Z,7.90
2023-03-02T16:12:49.319Z,8.10
2023-03-02T16:15:19.791Z,9.20
2023-03-02T16:17:47.151Z,8.10
2023-03-02T16:20:17.603Z,8.40
2023-03-02T16:22:45.051Z,8.83
2023-03-02T16:25:31.103Z,9.73
2023-03-02T16:28:02.444Z,9.70
2023-03-02T16:30:31.107Z,9.63
2023-03-02T16:33:03.182Z,8.80
2023-03-02T16:35:41.122Z,9.47
2023-03-02T16:38:10.162Z,10.27
2023-03-02T16:40:40.208Z,9.10
2023-03-02T16:43:26.935Z,9.97
2023-03-02T16:45:54.737Z,10.40
2023-03-02T16:48:21.912Z,11.27
2023-03-02T16:50:56.926Z,10.83
2023-03-02T16:53:24.302Z,10.40
2023-03-02T16:55:51.572Z,9.50
2023-03-02T16:58:21.713Z,9.67
2023-03-02T17:00:56.257Z,9.43
2023-03-02T17:03:26.592Z,8.87
2023-03-02T17:05:53.872Z,9.20
2023-03-02T17:08:21.162Z,8.80
2023-03-02T17:10:48.188Z,9.07
2023-03-02T17:13:18.716Z,9.03
2023-03-02T17:15:59.460Z,8.83
2023-03-02T17:18:30.958Z,9.87
2023-03-02T17:20:59.667Z,9.00
2023-03-02T17:23:27.991Z,9.17
2023-03-02T17:25:56.348Z,8.67
2023-03-02T17:28:23.935Z,9.00
2023-03-02T17:30:51.109Z,9.50
2023-03-02T17:33:21.553Z,7.53
2023-03-02T17:35:49.426Z,9.57
2023-03-02T17:38:17.094Z,10.17
2023-03-02T17:40:45.191Z,10.37
2023-03-02T17:43:41.547Z,8.80
2023-03-02T17:46:15.087Z,8.60
2023-03-02T17:48:43.243Z,8.97
2023-03-02T17:51:12.324Z,9.13
2023-03-02T17:53:39.503Z,8.90
2023-03-02T17:56:31.182Z,8.67
2023-03-02T17:59:05.534Z,8.63
2023-03-02T18:01:33.921Z,11.10
2023-03-02T18:04:01.118Z,10.97
2023-03-02T18:06:29.691Z,11.03
2023-03-02T18:08:56.731Z,11.17
2023-03-02T18:11:25.708Z,12.10
2023-03-02T18:13:56.866Z,10.80
2023-03-02T18:16:26.085Z,11.00
2023-03-02T18:18:54.134Z,12.27
2023-03-02T18:21:28.003Z,11.17
2023-03-02T18:23:58.593Z,10.13
2023-03-02T18:26:31.950Z,11.00
2023-03-02T18:29:05.447Z,10.27
2023-03-02T18:31:34.811Z,11.93
2023-03-02T18:34:02.830Z,13.23
2023-03-02T18:36:39.582Z,11.47
2023-03-02T18:39:09.706Z,11.60
2023-03-02T18:41:43.185Z,14.23
2023-03-02T18:44:10.726Z,17.67
2023-03-02T18:46:38.155Z,14.77
2023-03-02T18:49:05.185Z,12.57
2023-03-02T18:51:32.649Z,11.17
2023-03-02T18:54:06.051Z,11.00
2023-03-02T18:56:39.461Z,10.90
2023-03-02T18:59:09.010Z,12.87
2023-03-02T19:01:39.759Z,11.40
2023-03-02T19:04:07.188Z,12.33
2023-03-02T19:07:00.142Z,11.43
2023-03-02T19:10:08.717Z,11.77
2023-03-02T19:12:35.744Z,11.10
2023-03-02T19:15:04.511Z,10.73
2023-03-02T19:17:32.058Z,10.70
2023-03-02T19:19:59.428Z,11.60
2023-03-02T19:22:26.631Z,11.53
2023-03-02T19:24:53.920Z,13.60
2023-03-02T19:27:27.151Z,11.63
2023-03-02T19:29:54.654Z,12.13
2023-03-02T19:32:25.448Z,12.80
2023-03-02T19:34:52.814Z,12.53
2023-03-02T19:37:20.099Z,12.40
2023-03-02T19:39:47.539Z,14.10
2023-03-02T19:42:14.788Z,13.30
2023-03-02T19:44:41.832Z,12.90
2023-03-02T19:47:08.868Z,12.13
2023-03-02T19:49:37.765Z,12.07
2023-03-02T19:52:05.568Z,13.10
2023-03-02T19:54:32.663Z,12.00
2023-03-02T19:57:00.269Z,10.77
2023-03-02T19:59:27.432Z,11.73
2023-03-02T20:01:55.302Z,9.63
2023-03-02T20:04:22.923Z,13.03
2023-03-02T20:06:50.668Z,14.07
2023-03-02T20:09:24.746Z,12.37
2023-03-02T20:11:52.187Z,9.83
2023-03-02T20:14:33.510Z,10.27
2023-03-02T20:17:05.180Z,10.43
2023-03-02T20:19:32.954Z,14.80
2023-03-02T20:21:59.950Z,14.00
2023-03-02T20:24:27.332Z,12.60
2023-03-02T20:26:57.080Z,15.27
2023-03-02T20:29:24.725Z,13.07
2023-03-02T20:31:51.927Z,11.27
2023-03-02T20:37:35.342Z,11.80
2023-03-02T20:40:04.498Z,11.20
2023-03-02T20:42:34.083Z,11.67
2023-03-02T20:45:02.313Z,13.00
2023-03-02T20:47:30.571Z,12.30
2023-03-02T20:49:57.720Z,12.20
2023-03-02T20:52:25.284Z,10.97
2023-03-02T20:54:52.743Z,11.97
2023-03-02T20:57:22.124Z,11.70
2023-03-02T20:59:49.989Z,12.60
2023-03-02T21:02:19.624Z,12.50
2023-03-02T21:04:47.764Z,12.37
2023-03-02T21:07:15.463Z,12.30
2023-03-02T21:09:44.083Z,13.17
2023-03-02T21:12:11.970Z,11.60
2023-03-02T21:14:41.148Z,13.83
2023-03-02T21:17:09.198Z,13.33
2023-03-02T21:19:36.438Z,12.83
2023-03-02T21:22:04.686Z,14.00
2023-03-02T21:24:32.074Z,14.47
2023-03-02T21:27:00.710Z,13.47
2023-03-02T21:29:28.986Z,14.67
2023-03-02T21:31:56.611Z,13.57
2023-03-02T21:34:23.703Z,13.80
2023-03-02T21:36:56.937Z,14.10
2023-03-02T21:39:24.315Z,14.30
2023-03-02T21:41:52.361Z,13.13
2023-03-02T21:44:20.259Z,13.73
2023-03-02T21:46:49.185Z,13.10
2023-03-02T21:49:19.190Z,12.53
2023-03-02T21:51:48.969Z,12.10
2023-03-02T21:54:16.873Z,12.63
2023-03-02T21:56:44.593Z,12.50
2023-03-02T21:59:12.398Z,13.20
2023-03-02T22:01:39.852Z,15.17
2023-03-02T22:04:07.821Z,15.53
2023-03-02T22:06:35.684Z,14.53
2023-03-02T22:09:04.173Z,14.70
2023-03-02T22:11:37.907Z,14.87
2023-03-02T22:14:16.094Z,15.93
2023-03-02T22:16:47.810Z,15.80
2023-03-02T22:19:26.267Z,16.50
2023-03-02T22:21:56.214Z,16.97
2023-03-02T22:24:31.657Z,17.83
2023-03-02T22:27:19.227Z,17.40
2023-03-02T22:29:47.720Z,14.47
2023-03-02T22:32:19.108Z,14.57
2023-03-02T22:34:48.855Z,14.03
2023-03-02T22:37:18.844Z,14.03
2023-03-02T22:39:47.104Z,13.93
2023-03-02T22:42:20.349Z,14.03
2023-03-02T22:44:58.835Z,13.47
2023-03-02T22:47:26.156Z,13.77
2023-03-02T22:50:00.708Z,15.00
2023-03-02T22:52:39.396Z,13.37
2023-03-02T22:55:35.532Z,13.67
2023-03-02T22:58:30.615Z,14.10
2023-03-02T23:00:59.497Z,15.17
2023-03-02T23:03:44.807Z,14.30
2023-03-02T23:06:24.899Z,13.80
2023-03-02T23:08:54.090Z,13.80
2023-03-02T23:11:23.210Z,15.00
2023-03-02T23:13:52.595Z,15.77
2023-03-02T23:16:26.563Z,16.30
2023-03-02T23:18:57.658Z,16.03
2023-03-02T23:21:28.660Z,14.57
2023-03-02T23:23:56.548Z,14.67
2023-03-02T23:26:23.784Z,14.93
2023-03-02T23:28:51.551Z,15.87
2023-03-02T23:31:18.728Z,11.90
2023-03-02T23:33:46.839Z,12.53
2023-03-02T23:36:15.026Z,13.50
2023-03-02T23:38:42.595Z,12.53
2023-03-02T23:41:10.295Z,14.07
2023-03-02T23:43:37.971Z,16.10
2023-03-02T23:46:05.638Z,15.47
2023-03-02T23:48:34.360Z,21.30
2023-03-02T23:51:01.985Z,16.70
2023-03-02T23:53:29.488Z,16.37
2023-03-02T23:55:56.446Z,15.80
2023-03-02T23:58:24.539Z,19.03
